createdAt,value
2019-04-05T00:05:56.330Z,19.20
2019-04-05T00:10:59.770Z,18.17
2019-04-05T00:16:03.313Z,18.83
2019-04-05T00:21:06.801Z,20.57
2019-04-05T00:26:10.246Z,19.47
2019-04-05T00:31:13.702Z,18.80
2019-04-05T00:36:17.211Z,17.93
2019-04-05T00:41:21.329Z,20.53
2019-04-05T00:46:24.718Z,19.43
2019-04-05T00:51:28.224Z,19.77
2019-04-05T00:56:31.682Z,20.13
2019-04-05T01:01:35.606Z,18.33
2019-04-05T01:06:39.193Z,17.93
2019-04-05T01:11:42.730Z,17.80
2019-04-05T01:16:46.211Z,21.10
2019-04-05T01:21:49.735Z,21.07
2019-04-05T01:26:55.400Z,20.33
2019-04-05T01:31:58.847Z,20.07
2019-04-05T01:37:02.441Z,21.17
2019-04-05T01:42:06.963Z,20.93
2019-04-05T01:47:10.478Z,22.50
2019-04-05T01:52:14.120Z,20.40
2019-04-05T01:57:17.579Z,20.93
2019-04-05T02:02:21.035Z,21.17
2019-04-05T02:07:24.642Z,21.40
2019-04-05T02:12:28.196Z,20.90
2019-04-05T02:17:31.675Z,20.30
2019-04-05T02:22:35.213Z,20.70
2019-04-05T02:27:38.682Z,23.00
2019-04-05T02:32:42.224Z,22.23
2019-04-05T02:37:45.834Z,24.60
2019-04-05T02:42:52.649Z,24.60
2019-04-05T02:47:59.161Z,24.30
2019-04-05T02:53:05.654Z,22.03
2019-04-05T02:58:10.721Z,22.17
2019-04-05T03:03:15.483Z,21.73
2019-04-05T03:08:19.246Z,21.63
2019-04-05T03:13:46.478Z,23.27
2019-04-05T03:18:52.936Z,22.77
2019-04-05T03:23:59.424Z,23.27
2019-04-05T03:29:05.914Z,23.47
2019-04-05T03:34:09.629Z,23.30
2019-04-05T03:39:13.483Z,23.67
2019-04-05T03:44:16.957Z,22.27
2019-04-05T03:49:20.602Z,24.40
2019-04-05T03:54:24.040Z,23.90
2019-04-05T03:59:27.621Z,22.37
2019-04-05T04:04:31.396Z,23.77
2019-04-05T04:09:35.107Z,20.87
2019-04-05T04:14:39.266Z,23.07
2019-04-05T04:19:42.770Z,21.40
2019-04-05T04:24:46.768Z,21.43
2019-04-05T04:29:50.334Z,20.73
2019-04-05T04:34:54.612Z,20.10
2019-04-05T04:39:58.202Z,19.00
2019-04-05T04:45:11.811Z,19.20
2019-04-05T04:50:09.512Z,19.83
2019-04-05T04:55:13.117Z,21.23
2019-04-05T05:00:18.537Z,20.50
2019-04-05T05:05:22.837Z,19.20
2019-04-05T05:10:26.713Z,21.33
2019-04-05T05:15:30.593Z,20.80
2019-04-05T05:20:34.356Z,21.57
2019-04-05T05:25:37.848Z,19.97
2019-04-05T05:30:41.343Z,19.87
2019-04-05T05:35:44.883Z,20.90
2019-04-05T05:40:48.312Z,21.40
2019-04-05T05:45:51.873Z,27.67
2019-04-05T05:50:55.660Z,22.53
2019-04-05T05:55:59.085Z,21.70
2019-04-05T06:01:02.524Z,21.73
2019-04-05T06:06:06.006Z,33.80
2019-04-05T06:11:09.437Z,24.67
2019-04-05T06:16:12.920Z,22.80
2019-04-05T06:21:16.347Z,24.20
2019-04-05T06:26:19.789Z,24.13
2019-04-05T06:31:23.227Z,23.73
2019-04-05T06:36:26.658Z,21.43
2019-04-05T06:41:30.091Z,22.07
2019-04-05T06:46:33.523Z,23.33
2019-04-05T06:51:36.972Z,20.23
2019-04-05T06:56:40.395Z,23.00
2019-04-05T07:01:43.818Z,23.57
2019-04-05T07:06:47.296Z,24.03
2019-04-05T07:11:50.718Z,22.13
2019-04-05T07:16:54.249Z,20.13
2019-04-05T07:21:57.752Z,19.57
2019-04-05T07:27:01.333Z,18.07
2019-04-05T07:32:05.317Z,20.20
2019-04-05T07:37:08.739Z,18.17
2019-04-05T07:42:12.168Z,18.70
2019-04-05T07:47:15.600Z,15.83
2019-04-05T07:52:19.036Z,16.17
2019-04-05T07:57:22.459Z,16.77
2019-04-05T08:02:25.971Z,14.57
2019-04-05T08:07:32.460Z,13.60
2019-04-05T08:12:37.420Z,14.40
2019-04-05T08:17:40.855Z,14.83
2019-04-05T08:22:44.269Z,13.23
2019-04-05T08:27:47.684Z,14.40
2019-04-05T08:32:51.103Z,15.50
2019-04-05T08:37:54.559Z,14.07
2019-04-05T08:42:57.989Z,13.93
2019-04-05T08:48:01.565Z,14.07
2019-04-05T08:53:05.373Z,15.97
2019-04-05T08:58:08.793Z,16.43
2019-04-05T09:03:12.268Z,13.47
2019-04-05T09:08:16.002Z,14.07
2019-04-05T09:13:19.437Z,13.00
2019-04-05T09:18:22.867Z,14.70
2019-04-05T09:23:26.304Z,13.17
2019-04-05T09:28:29.769Z,14.60
2019-04-05T09:33:33.216Z,16.73
2019-04-05T09:38:36.655Z,13.57
2019-04-05T09:43:40.173Z,13.83
2019-04-05T09:48:43.610Z,13.87
2019-04-05T09:53:47.063Z,12.07
2019-04-05T09:58:50.468Z,14.00
2019-04-05T10:03:53.925Z,13.13
2019-04-05T10:08:57.341Z,13.70
2019-04-05T10:14:00.776Z,13.70
2019-04-05T10:19:04.626Z,14.93
2019-04-05T10:24:08.037Z,15.13
2019-04-05T10:29:11.465Z,13.87
2019-04-05T10:34:15.440Z,15.87
2019-04-05T10:39:18.877Z,12.57
2019-04-05T10:44:22.311Z,16.03
2019-04-05T10:49:25.823Z,16.90
2019-04-05T10:54:29.292Z,16.13
2019-04-05T10:59:32.807Z,15.30
2019-04-05T11:04:36.250Z,15.57
2019-04-05T11:09:39.748Z,13.33
2019-04-05T11:14:43.489Z,16.57
2019-04-05T11:19:46.929Z,15.17
2019-04-05T11:24:50.390Z,15.87
2019-04-05T11:29:53.844Z,15.77
2019-04-05T11:34:57.292Z,15.23
2019-04-05T11:40:00.830Z,15.40
2019-04-05T11:45:05.698Z,16.30
2019-04-05T11:50:11.393Z,14.80
2019-04-05T11:55:18.222Z,14.47
2019-04-05T12:00:23.400Z,14.53
2019-04-05T12:05:27.374Z,15.93
2019-04-05T12:10:32.131Z,15.03
2019-04-05T12:15:36.436Z,15.90
2019-04-05T12:20:48.324Z,17.93
2019-04-05T12:25:45.149Z,17.30
2019-04-05T12:30:49.468Z,17.67
2019-04-05T12:35:56.318Z,15.67
2019-04-05T12:40:59.019Z,15.87
2019-04-05T12:46:04.898Z,14.93
2019-04-05T12:51:08.811Z,15.77
2019-04-05T12:56:12.265Z,14.13
2019-04-05T13:01:15.784Z,15.50
2019-04-05T13:06:19.892Z,17.07
2019-04-05T13:11:26.686Z,17.40
2019-04-05T13:16:29.596Z,17.33
2019-04-05T13:21:33.301Z,18.93
2019-04-05T13:26:37.155Z,15.87
2019-04-05T13:31:40.762Z,17.67
2019-04-05T13:36:44.209Z,19.33
2019-04-05T13:41:47.656Z,18.50
2019-04-05T13:46:51.073Z,19.30
2019-04-05T13:51:54.514Z,20.23
2019-04-05T13:56:58.185Z,18.77
2019-04-05T14:02:06.283Z,17.33
2019-04-05T14:07:07.219Z,18.00
2019-04-05T14:12:10.665Z,15.57
2019-04-05T14:17:14.363Z,15.93
2019-04-05T14:22:17.867Z,14.47
2019-04-05T14:27:21.326Z,15.30
2019-04-05T14:32:24.776Z,14.83
2019-04-05T14:37:28.303Z,15.10
2019-04-05T14:42:31.732Z,14.27
2019-04-05T14:47:35.204Z,16.67
2019-04-05T14:52:38.908Z,17.27
2019-04-05T14:57:42.331Z,15.03
2019-04-05T15:02:45.776Z,14.90
2019-04-05T15:07:51.054Z,14.27
2019-04-05T15:12:54.391Z,15.37
2019-04-05T15:17:57.912Z,12.97
2019-04-05T15:23:01.430Z,11.50
2019-04-05T15:28:04.870Z,13.90
2019-04-05T15:33:08.373Z,11.77
2019-04-05T15:38:11.895Z,12.00
2019-04-05T15:43:15.335Z,10.70
2019-04-05T15:48:20.492Z,10.83
2019-04-05T15:53:23.937Z,11.10
2019-04-05T15:58:27.383Z,12.10
2019-04-05T16:03:32.289Z,10.23
2019-04-05T16:08:36.131Z,11.67
2019-04-05T16:13:39.571Z,11.37
2019-04-05T16:18:43.893Z,12.00
2019-04-05T16:23:47.383Z,9.73
2019-04-05T16:28:50.823Z,11.40
2019-04-05T16:33:54.237Z,9.80
2019-04-05T16:38:57.782Z,10.63
2019-04-05T16:44:01.209Z,12.13
2019-04-05T16:49:04.676Z,11.13
2019-04-05T16:54:08.163Z,10.03
2019-04-05T16:59:11.657Z,10.97
2019-04-05T17:04:15.967Z,11.20
2019-04-05T17:09:19.423Z,11.63
2019-04-05T17:14:23.374Z,11.13
2019-04-05T17:19:26.837Z,12.87
2019-04-05T17:24:30.278Z,12.83
2019-04-05T17:29:33.693Z,13.13
2019-04-05T17:34:37.108Z,10.27
2019-04-05T17:39:40.557Z,12.37
2019-04-05T17:44:44.016Z,14.03
2019-04-05T17:49:47.768Z,14.17
2019-04-05T17:54:51.264Z,14.50
2019-04-05T17:59:54.862Z,16.43
2019-04-05T18:04:58.842Z,13.87
2019-04-05T18:10:02.272Z,13.57
2019-04-05T18:15:06.363Z,14.93
2019-04-05T18:20:10.266Z,15.50
2019-04-05T18:25:14.369Z,16.27
2019-04-05T18:30:19.156Z,15.30
2019-04-05T18:35:22.597Z,14.03
2019-04-05T18:40:26.036Z,19.20
2019-04-05T18:45:30.160Z,17.00
2019-04-05T18:50:33.596Z,17.97
2019-04-05T18:55:37.149Z,16.27
2019-04-05T19:00:40.593Z,16.63
2019-04-05T19:05:44.023Z,17.03
2019-04-05T19:10:47.485Z,18.97
2019-04-05T19:15:50.933Z,16.33
2019-04-05T19:20:54.402Z,15.47
2019-04-05T19:25:57.848Z,18.77
2019-04-05T19:51:22.120Z,18.27
2019-04-05T19:56:25.562Z,20.73
2019-04-05T20:01:29.033Z,18.33
2019-04-05T20:06:32.499Z,19.00
2019-04-05T20:11:35.924Z,20.23
2019-04-05T20:16:39.361Z,22.33
2019-04-05T20:21:42.799Z,19.13
2019-04-05T20:26:46.280Z,20.37
2019-04-05T20:31:49.983Z,20.57
2019-04-05T20:36:53.750Z,22.90
2019-04-05T20:41:57.189Z,19.90
2019-04-05T20:47:00.677Z,22.77
2019-04-05T20:52:04.403Z,18.83
2019-04-05T20:57:07.816Z,29.27
2019-04-05T21:02:11.250Z,22.07
2019-04-05T21:07:14.670Z,27.40
2019-04-05T21:12:18.092Z,26.17
2019-04-05T21:17:21.528Z,27.93
2019-04-05T21:22:24.992Z,27.10
2019-04-05T21:27:28.454Z,34.00
2019-04-05T21:32:31.990Z,27.97
2019-04-05T21:37:35.480Z,27.50
2019-04-05T21:42:38.913Z,30.40
2019-04-05T21:47:42.369Z,31.77
2019-04-05T21:52:45.824Z,28.40
2019-04-05T21:57:49.316Z,31.20
2019-04-05T22:02:52.786Z,29.23
2019-04-05T22:07:56.251Z,30.10
2019-04-05T22:13:04.648Z,28.03
2019-04-05T22:18:08.138Z,30.57
2019-04-05T22:23:12.090Z,29.23
2019-04-05T22:28:15.538Z,31.63
2019-04-05T22:33:19.015Z,28.73
2019-04-05T22:38:22.494Z,30.17
2019-04-05T22:43:25.962Z,30.63
2019-04-05T22:48:29.419Z,32.73
2019-04-05T22:53:32.892Z,29.07
2019-04-05T22:58:36.364Z,29.83
2019-04-05T23:03:39.814Z,31.43
2019-04-05T23:08:43.673Z,34.97
2019-04-05T23:13:47.133Z,38.27
2019-04-05T23:18:50.585Z,33.67
2019-04-05T23:23:54.059Z,32.83
2019-04-05T23:28:57.557Z,31.47
2019-04-05T23:34:01.063Z,34.07
2019-04-05T23:39:05.606Z,33.20
2019-04-05T23:44:09.119Z,32.10
2019-04-05T23:49:12.580Z,35.53
2019-04-05T23:54:16.046Z,32.17
2019-04-05T23:59:19.538Z,33.30
